Terminal Aerodrome Forecast
Issued by NWS Pittsburgh, PA

Current Version | Previous Version | Text Only | Print | Product List | Glossary Off
Versions: 1 2 3 4 5 6 7 8 9 10 11 12 13 14 15 16 17 18 19 20 21 22 23 24 25 26 27 28 29 30

000
FTUS41 KPBZ 151504 AAA
TAFPIT
TAF AMD
KPIT 151504Z 1515/1618 00000KT P6SM BKN015 BKN250
      TEMPO 1515/1517 SCT015 BKN035
     FM151700 VRB05KT P6SM SCT035=

USA.gov is the U.S. government's official web portal to all federal, state and local government web resources and services.